SBPV

Details ICAO SBPV (PVH)
Name Governador Jorge Teixeira De Oliveira
Region Brazil
Timezone America/Porto_Velho (UTC-4.0)
Plans Departing 77
Arriving 84
Stats Elevation 290 ft / 88 m (AMSL)
Location -8.709290° -63.902300°
Runways 1
Magnetic Variation 13.031° W
Sunrise 2018-10-20 09:51:41 UTC / 2018-10-20 05:51:41 Local
Sunset 2018-10-20 22:11:23 UTC / 2018-10-20 18:11:23 Local
Advertisement - Login to hide

Runways

ID Width Length Bearing (true/mag) Surface Threshold Overrun Markings Lighting
01 148 ft / 45 m 7,919 ft / 2,414 m 356.64° / 9.67° ASPHALT 0 ft / 0 m 200 ft / 61 m APP EDGE THRESHOLD
19 148 ft / 45 m 7,919 ft / 2,414 m 176.64° / 189.67° ASPHALT 0 ft / 0 m 200 ft / 61 m PREC-APP EDGE THRESHOLD

Approach Navaids

Runway Type Ident Frequency Range Bearing (true/mag) Slope Elevation
19 LOC-ILS IPV 109.30 MHz 18 nm / 33 km 179.71° / 192.74° - 290 ft / 88 m (AMSL)
19 GS IPV 109.30 MHz 10 nm / 19 km 177.28° / 190.31° 3.00° 290 ft / 88 m (AMSL)

Map

Weather


0- 5 10 15 20 25 30 35+ Temperature / °C

Clouds and Precipitation
Forecast for 2018-10-21 00:00 UTC. Updated 3 hours ago

Ground ~20,000 ft ~40,000 ft Winds

METAR

SBPV 210000Z 09002KT 9999 FEW020 SCT100 25/23 Q1007

TAF

Not found

Frequencies

Approach 119.10 MHz
Tower 118.70 MHz
Warning: Do not use this data for real-world aviation or navigation. No guarantee of current accuracy is given.